createdAt,value
2023-03-21T00:00:42.296Z,9.46
2023-03-21T00:03:09.184Z,9.48
2023-03-21T00:05:42.547Z,9.52
2023-03-21T00:08:09.672Z,9.47
2023-03-21T00:10:43.471Z,9.45
2023-03-21T00:13:13.201Z,9.50
2023-03-21T00:16:01.847Z,9.41
2023-03-21T00:18:31.749Z,9.40
2023-03-21T00:21:37.558Z,9.43
2023-03-21T00:23:52.308Z,9.40
2023-03-21T00:26:18.835Z,9.47
2023-03-21T00:28:45.778Z,9.63
2023-03-21T00:31:12.316Z,9.55
2023-03-21T00:33:39.526Z,9.55
2023-03-21T00:36:07.590Z,9.52
2023-03-21T00:38:35.626Z,9.49
2023-03-21T00:41:17.676Z,9.36
2023-03-21T00:43:47.900Z,9.35
2023-03-21T00:46:14.541Z,9.34
2023-03-21T00:48:41.471Z,9.25
2023-03-21T00:51:15.615Z,9.24
2023-03-21T00:53:42.858Z,9.17
2023-03-21T00:56:09.795Z,9.01
2023-03-21T00:58:36.462Z,9.10
2023-03-21T01:01:04.442Z,9.03
2023-03-21T01:03:31.092Z,9.15
2023-03-21T01:06:06.998Z,9.09
2023-03-21T01:08:54.531Z,9.02
2023-03-21T01:11:26.733Z,8.90
2023-03-21T01:14:04.239Z,8.96
2023-03-21T01:16:38.326Z,8.98
2023-03-21T01:19:09.280Z,8.90
2023-03-21T01:21:41.421Z,8.95
2023-03-21T01:24:08.255Z,8.81
2023-03-21T01:26:34.834Z,8.89
2023-03-21T01:29:01.367Z,8.92
2023-03-21T01:31:28.022Z,9.04
2023-03-21T01:33:54.606Z,8.95
2023-03-21T01:36:24.899Z,8.90
2023-03-21T01:38:52.830Z,8.89
2023-03-21T01:41:36.771Z,8.79
2023-03-21T01:44:14.952Z,8.91
2023-03-21T01:46:57.017Z,8.75
2023-03-21T01:49:34.578Z,8.81
2023-03-21T01:52:13.173Z,8.72
2023-03-21T01:54:43.562Z,8.74
2023-03-21T01:57:16.500Z,8.50
2023-03-21T01:59:46.022Z,8.71
2023-03-21T02:02:20.848Z,8.60
2023-03-21T02:04:51.031Z,8.59
2023-03-21T02:07:25.607Z,8.66
2023-03-21T02:09:53.315Z,8.82
2023-03-21T02:12:20.322Z,8.73
2023-03-21T02:14:49.018Z,8.87
2023-03-21T02:17:37.312Z,8.92
2023-03-21T02:20:35.108Z,8.78
2023-03-21T02:23:24.821Z,8.62
2023-03-21T02:26:03.497Z,8.59
2023-03-21T02:28:36.734Z,8.53
2023-03-21T02:31:28.366Z,8.52
2023-03-21T02:34:39.353Z,8.47
2023-03-21T02:37:15.294Z,8.45
2023-03-21T02:39:55.058Z,8.42
2023-03-21T02:42:24.515Z,8.41
2023-03-21T02:44:54.068Z,8.56
2023-03-21T02:47:34.762Z,8.59
2023-03-21T02:50:05.545Z,8.55
2023-03-21T02:52:39.573Z,8.50
2023-03-21T02:55:15.484Z,8.40
2023-03-21T02:57:44.108Z,8.34
2023-03-21T03:00:17.829Z,8.33
2023-03-21T03:02:45.224Z,8.15
2023-03-21T03:05:22.146Z,8.16
2023-03-21T03:08:01.436Z,8.16
2023-03-21T03:10:33.919Z,8.02
2023-03-21T03:13:58.173Z,7.83
2023-03-21T03:16:25.871Z,7.77
2023-03-21T03:18:58.649Z,7.78
2023-03-21T03:21:40.234Z,7.71
2023-03-21T03:24:34.121Z,7.76
2023-03-21T03:27:05.289Z,7.76
2023-03-21T03:29:34.171Z,7.79
2023-03-21T03:32:13.922Z,7.77
2023-03-21T03:34:56.167Z,7.64
2023-03-21T03:37:29.627Z,7.71
2023-03-21T03:40:15.402Z,7.62
2023-03-21T03:42:49.483Z,7.66
2023-03-21T03:45:16.734Z,7.58
2023-03-21T03:47:57.078Z,7.52
2023-03-21T03:50:34.610Z,7.26
2023-03-21T03:53:25.376Z,7.17
2023-03-21T03:55:54.795Z,7.03
2023-03-21T03:58:26.026Z,6.98
2023-03-21T04:00:57.982Z,6.84
2023-03-21T04:03:24.874Z,6.88
2023-03-21T04:05:51.764Z,7.12
2023-03-21T04:08:18.348Z,7.45
2023-03-21T04:10:44.951Z,7.54
2023-03-21T04:13:11.570Z,7.43
2023-03-21T04:15:38.115Z,7.45
2023-03-21T04:18:04.937Z,7.63
2023-03-21T04:20:36.903Z,7.69
2023-03-21T04:23:05.007Z,7.70
2023-03-21T04:25:42.260Z,7.57
2023-03-21T04:28:14.366Z,7.64
2023-03-21T04:30:43.390Z,7.62
2023-03-21T04:33:15.951Z,7.67
2023-03-21T04:35:42.650Z,7.58
2023-03-21T04:38:09.152Z,7.47
2023-03-21T04:40:35.909Z,7.28
2023-03-21T04:43:02.596Z,7.18
2023-03-21T04:45:29.200Z,7.11
2023-03-21T04:47:57.341Z,7.10
2023-03-21T04:50:23.927Z,7.37
2023-03-21T04:52:50.633Z,7.43
2023-03-21T04:55:17.212Z,7.52
2023-03-21T04:57:43.704Z,7.47
2023-03-21T05:00:10.900Z,7.73
2023-03-21T05:02:38.281Z,7.77
2023-03-21T05:05:05.266Z,7.72
2023-03-21T05:07:32.768Z,7.72
2023-03-21T05:10:01.316Z,7.89
2023-03-21T05:12:28.907Z,7.78
2023-03-21T05:14:55.479Z,7.82
2023-03-21T05:17:24.968Z,7.79
2023-03-21T05:19:52.898Z,7.76
2023-03-21T05:22:19.761Z,7.82
2023-03-21T05:24:50.117Z,8.02
2023-03-21T05:27:34.921Z,7.86
2023-03-21T05:30:11.688Z,7.86
2023-03-21T05:32:38.579Z,7.87
2023-03-21T05:35:05.883Z,7.90
2023-03-21T05:37:32.467Z,7.75
2023-03-21T05:39:59.020Z,7.93
2023-03-21T05:42:26.043Z,7.90
2023-03-21T05:44:52.593Z,7.89
2023-03-21T05:47:19.572Z,7.78
2023-03-21T05:49:47.155Z,7.76
2023-03-21T05:52:13.787Z,7.99
2023-03-21T05:54:40.351Z,7.92
2023-03-21T05:57:07.328Z,7.95
2023-03-21T05:59:34.268Z,8.01
2023-03-21T06:02:00.847Z,8.04
2023-03-21T06:04:27.379Z,7.80
2023-03-21T06:06:54.215Z,8.12
2023-03-21T06:09:22.584Z,8.05
2023-03-21T06:11:52.153Z,8.06
2023-03-21T06:14:18.568Z,8.32
2023-03-21T06:16:45.410Z,8.32
2023-03-21T06:19:12.443Z,8.31
2023-03-21T06:21:39.152Z,8.31
2023-03-21T06:24:06.044Z,8.36
2023-03-21T06:26:32.619Z,8.82
2023-03-21T06:28:59.130Z,8.72
2023-03-21T06:31:26.729Z,8.70
2023-03-21T06:33:53.454Z,8.59
2023-03-21T06:36:20.309Z,8.65
2023-03-21T06:38:47.008Z,8.77
2023-03-21T06:41:13.819Z,8.73
2023-03-21T06:43:40.459Z,8.59
2023-03-21T06:46:07.046Z,8.65
2023-03-21T06:48:33.617Z,8.58
2023-03-21T06:51:00.281Z,8.76
2023-03-21T06:53:30.155Z,8.62
2023-03-21T06:55:57.030Z,8.59
2023-03-21T06:58:24.083Z,8.85
2023-03-21T07:00:50.870Z,8.91
2023-03-21T07:03:17.428Z,9.12
2023-03-21T07:05:43.964Z,9.23
2023-03-21T07:08:12.324Z,9.28
2023-03-21T07:10:40.269Z,9.20
2023-03-21T07:13:07.136Z,9.05
2023-03-21T07:15:34.686Z,9.16
2023-03-21T07:18:01.230Z,9.34
2023-03-21T07:20:27.886Z,9.41
2023-03-21T07:22:54.453Z,9.44
2023-03-21T07:25:20.969Z,9.38
2023-03-21T07:27:47.516Z,9.45
2023-03-21T07:30:15.658Z,9.35
2023-03-21T07:32:42.571Z,8.96
2023-03-21T07:35:12.720Z,8.89
2023-03-21T07:37:40.785Z,9.01
2023-03-21T07:40:13.126Z,9.04
2023-03-21T07:42:41.076Z,9.14
2023-03-21T07:45:09.022Z,9.28
2023-03-21T07:47:35.960Z,9.59
2023-03-21T07:50:04.527Z,9.61
2023-03-21T07:52:31.317Z,9.45
2023-03-21T07:55:00.220Z,9.64
2023-03-21T07:57:26.787Z,9.61
2023-03-21T07:59:53.360Z,9.86
2023-03-21T08:02:20.026Z,10.08
2023-03-21T08:04:46.831Z,10.39
2023-03-21T08:07:14.041Z,10.46
2023-03-21T08:09:41.001Z,10.31
2023-03-21T08:12:10.700Z,10.78
2023-03-21T08:14:37.266Z,11.04
2023-03-21T08:17:04.983Z,10.77
2023-03-21T08:19:31.614Z,10.97
2023-03-21T08:22:02.371Z,10.96
2023-03-21T08:24:30.096Z,10.99
2023-03-21T08:26:57.260Z,10.97
2023-03-21T08:29:25.106Z,10.87
2023-03-21T08:31:51.662Z,10.97
2023-03-21T08:34:19.528Z,10.79
2023-03-21T08:36:47.124Z,11.07
2023-03-21T08:39:13.681Z,11.00
2023-03-21T08:41:40.281Z,11.02
2023-03-21T08:44:07.037Z,10.71
2023-03-21T08:46:33.804Z,11.14
2023-03-21T08:49:00.472Z,10.75
2023-03-21T08:51:27.239Z,10.68
2023-03-21T08:53:53.784Z,11.23
2023-03-21T08:56:20.367Z,11.44
2023-03-21T08:58:47.373Z,11.58
2023-03-21T09:01:15.760Z,12.02
2023-03-21T09:04:03.102Z,12.20
2023-03-21T09:06:30.189Z,12.18
2023-03-21T09:08:56.946Z,12.27
2023-03-21T09:11:23.564Z,12.16
2023-03-21T09:13:50.099Z,11.86
2023-03-21T09:16:16.618Z,11.97
2023-03-21T09:18:48.743Z,12.23
2023-03-21T09:21:17.308Z,12.14
2023-03-21T09:23:50.648Z,12.19
2023-03-21T09:26:17.228Z,12.17
2023-03-21T09:28:43.754Z,12.09
2023-03-21T09:31:12.333Z,12.41
2023-03-21T09:33:42.742Z,12.15
2023-03-21T09:36:18.749Z,12.85
2023-03-21T09:38:46.715Z,12.85
2023-03-21T09:41:16.300Z,13.12
2023-03-21T09:44:05.669Z,12.83
2023-03-21T09:46:50.221Z,12.82
2023-03-21T09:49:31.015Z,12.28
2023-03-21T09:52:05.490Z,12.28
2023-03-21T09:54:43.043Z,12.33
2023-03-21T09:57:15.893Z,12.28
2023-03-21T09:59:42.927Z,12.50
2023-03-21T10:02:32.411Z,12.97
2023-03-21T10:05:00.761Z,12.87
2023-03-21T10:07:31.924Z,13.05
2023-03-21T10:10:01.039Z,13.37
2023-03-21T10:12:30.631Z,13.75
2023-03-21T10:15:00.788Z,13.95
2023-03-21T10:17:36.299Z,13.57
2023-03-21T10:20:24.559Z,13.50
2023-03-21T10:22:54.289Z,13.25
2023-03-21T10:25:48.221Z,12.90
2023-03-21T10:28:49.851Z,13.19
2023-03-21T10:31:25.427Z,14.09
2023-03-21T10:33:54.560Z,14.35
2023-03-21T10:36:25.846Z,14.27
2023-03-21T10:39:02.102Z,14.32
2023-03-21T10:41:28.655Z,13.66
2023-03-21T10:44:12.080Z,14.07
2023-03-21T10:46:38.733Z,14.16
2023-03-21T10:49:08.187Z,14.59
2023-03-21T10:51:37.261Z,15.04
2023-03-21T10:54:08.557Z,14.68
2023-03-21T10:56:38.818Z,14.43
2023-03-21T10:59:08.832Z,14.55
2023-03-21T11:01:40.597Z,14.12
2023-03-21T11:04:14.019Z,14.68
2023-03-21T11:06:42.973Z,14.39
2023-03-21T11:09:15.456Z,13.75
2023-03-21T11:11:54.414Z,13.14
2023-03-21T11:14:28.352Z,14.22
2023-03-21T11:16:54.983Z,13.32
2023-03-21T11:19:33.715Z,13.64
2023-03-21T11:22:07.108Z,13.93
2023-03-21T11:24:35.513Z,15.53
2023-03-21T11:27:07.132Z,15.28
2023-03-21T11:29:36.022Z,14.12
2023-03-21T11:32:13.801Z,14.64
2023-03-21T11:35:01.320Z,14.16
2023-03-21T11:37:39.562Z,13.64
2023-03-21T11:40:23.168Z,14.12
2023-03-21T11:42:59.307Z,15.54
2023-03-21T11:45:31.180Z,15.40
2023-03-21T11:48:00.549Z,14.87
2023-03-21T11:50:37.164Z,14.86
2023-03-21T11:53:03.643Z,14.40
2023-03-21T11:55:41.127Z,15.53
2023-03-21T11:58:31.526Z,14.65
2023-03-21T12:01:20.119Z,15.74
2023-03-21T12:03:54.324Z,15.73
2023-03-21T12:06:41.633Z,14.47
2023-03-21T12:09:17.570Z,14.60
2023-03-21T12:11:56.272Z,15.47
2023-03-21T12:14:27.203Z,15.47
2023-03-21T12:17:15.658Z,15.71
2023-03-21T12:20:12.365Z,15.60
2023-03-21T12:22:52.057Z,16.00
2023-03-21T12:25:54.961Z,15.83
2023-03-21T12:29:07.138Z,15.64
2023-03-21T12:32:01.510Z,14.40
2023-03-21T12:34:49.532Z,14.63
2023-03-21T12:37:34.478Z,15.03
2023-03-21T12:40:17.250Z,14.89
2023-03-21T12:42:43.687Z,14.46
2023-03-21T12:45:21.840Z,15.97
2023-03-21T12:47:56.376Z,16.16
2023-03-21T12:50:29.215Z,15.72
2023-03-21T12:53:04.492Z,15.58
2023-03-21T12:55:33.965Z,15.83
2023-03-21T12:58:10.124Z,16.69
2023-03-21T13:00:40.606Z,16.83
2023-03-21T13:03:33.516Z,16.38
2023-03-21T13:06:06.590Z,16.69
2023-03-21T13:08:46.464Z,15.85
2023-03-21T13:11:17.645Z,15.47
2023-03-21T13:14:05.977Z,15.42
2023-03-21T13:16:38.532Z,15.44
2023-03-21T13:19:17.281Z,14.82
2023-03-21T13:22:19.855Z,15.66
2023-03-21T13:24:48.169Z,14.65
2023-03-21T13:27:33.675Z,14.84
2023-03-21T13:30:02.584Z,14.55
2023-03-21T13:32:35.853Z,14.70
2023-03-21T13:35:27.461Z,14.97
2023-03-21T13:37:59.094Z,15.09
2023-03-21T13:40:27.218Z,14.78
2023-03-21T13:42:59.892Z,15.90
2023-03-21T13:45:45.303Z,15.22
2023-03-21T13:48:46.541Z,15.96
2023-03-21T13:51:37.555Z,16.14
2023-03-21T13:54:07.100Z,16.64
2023-03-21T13:56:49.077Z,16.40
2023-03-21T13:59:37.404Z,16.47
2023-03-21T14:02:32.258Z,16.30
2023-03-21T14:05:06.615Z,15.72
2023-03-21T14:07:42.274Z,16.74
2023-03-21T14:10:23.342Z,16.27
2023-03-21T14:12:50.460Z,16.45
2023-03-21T14:15:23.140Z,16.50
2023-03-21T14:18:28.175Z,17.14
2023-03-21T14:21:05.045Z,16.35
2023-03-21T14:23:31.813Z,16.91
2023-03-21T14:25:58.879Z,17.34
2023-03-21T14:28:29.466Z,17.08
2023-03-21T14:31:00.099Z,16.88
2023-03-21T14:33:29.042Z,17.36
2023-03-21T14:35:59.130Z,17.30
2023-03-21T14:38:32.203Z,17.62
2023-03-21T14:40:59.027Z,17.21
2023-03-21T14:43:27.609Z,16.94
2023-03-21T14:45:56.609Z,17.15
2023-03-21T14:48:33.774Z,16.97
2023-03-21T14:51:08.214Z,16.37
2023-03-21T14:53:41.152Z,15.85
2023-03-21T14:56:17.006Z,15.76
2023-03-21T14:58:47.219Z,15.46
2023-03-21T15:01:17.302Z,15.56
2023-03-21T15:03:50.338Z,16.20
2023-03-21T15:06:17.616Z,15.84
2023-03-21T15:08:58.033Z,16.37
2023-03-21T15:11:38.133Z,15.95
2023-03-21T15:14:14.214Z,15.42
2023-03-21T15:16:41.290Z,15.09
2023-03-21T15:19:14.679Z,14.75
2023-03-21T15:21:49.111Z,14.69
2023-03-21T15:24:21.882Z,14.75
2023-03-21T15:26:49.782Z,14.92
2023-03-21T15:29:18.258Z,14.78
2023-03-21T15:31:48.217Z,14.71
2023-03-21T15:34:21.945Z,14.91
2023-03-21T15:36:54.681Z,14.72
2023-03-21T15:39:23.688Z,14.50
2023-03-21T15:42:26.039Z,14.63
2023-03-21T15:44:55.784Z,14.96
2023-03-21T15:48:03.036Z,15.12
2023-03-21T15:50:40.341Z,15.07
2023-03-21T15:53:17.124Z,14.95
2023-03-21T15:55:51.972Z,14.95
2023-03-21T15:58:36.968Z,15.00
2023-03-21T16:01:12.751Z,15.46
2023-03-21T16:03:45.835Z,15.85
2023-03-21T16:06:15.045Z,16.10
2023-03-21T16:08:47.280Z,15.89
2023-03-21T16:11:22.850Z,16.23
2023-03-21T16:13:50.382Z,15.52
2023-03-21T16:16:18.903Z,15.23
2023-03-21T16:18:45.835Z,15.35
2023-03-21T16:21:14.741Z,14.84
2023-03-21T16:23:42.068Z,14.72
2023-03-21T16:26:17.722Z,14.65
2023-03-21T16:28:45.392Z,14.09
2023-03-21T16:31:14.782Z,14.02
2023-03-21T16:33:41.902Z,13.78
2023-03-21T16:36:17.833Z,13.67
2023-03-21T16:38:49.630Z,13.57
2023-03-21T16:41:16.696Z,13.49
2023-03-21T16:43:44.086Z,13.49
2023-03-21T16:46:16.138Z,13.63
2023-03-21T16:48:44.392Z,13.60
2023-03-21T16:51:19.222Z,13.51
2023-03-21T16:53:49.545Z,13.52
2023-03-21T16:56:20.265Z,13.42
2023-03-21T16:58:47.225Z,13.53
2023-03-21T17:01:19.908Z,13.59
2023-03-21T17:03:48.316Z,13.64
2023-03-21T17:06:17.282Z,13.36
2023-03-21T17:08:44.832Z,13.43
2023-03-21T17:11:16.926Z,13.48
2023-03-21T17:13:44.081Z,13.35
2023-03-21T17:16:15.616Z,13.19
2023-03-21T17:18:43.477Z,13.15
2023-03-21T17:21:16.332Z,13.15
2023-03-21T17:23:44.039Z,13.13
2023-03-21T17:26:13.433Z,12.98
2023-03-21T17:28:41.107Z,13.38
2023-03-21T17:31:19.628Z,13.28
2023-03-21T17:33:46.861Z,13.11
2023-03-21T17:36:15.941Z,13.02
2023-03-21T17:38:45.831Z,13.16
2023-03-21T17:41:14.551Z,13.37
2023-03-21T17:43:41.185Z,13.29
2023-03-21T17:46:11.647Z,13.05
2023-03-21T17:48:38.346Z,13.11
2023-03-21T17:51:05.197Z,13.15
2023-03-21T17:53:31.748Z,13.11
2023-03-21T17:55:58.334Z,12.96
2023-03-21T17:58:26.204Z,12.83
2023-03-21T18:00:52.802Z,12.96
2023-03-21T18:03:19.776Z,12.96
2023-03-21T18:05:46.355Z,12.82
2023-03-21T18:08:13.193Z,12.57
2023-03-21T18:10:40.961Z,12.49
2023-03-21T18:13:07.894Z,12.57
2023-03-21T18:15:35.994Z,12.53
2023-03-21T18:18:04.660Z,12.88
2023-03-21T18:23:19.172Z,12.75
2023-03-21T18:25:45.871Z,12.70
2023-03-21T18:28:13.220Z,12.79
2023-03-21T18:31:05.418Z,12.79
2023-03-21T18:33:27.553Z,12.69
2023-03-21T18:35:59.100Z,12.73
2023-03-21T18:38:29.040Z,12.68
2023-03-21T18:40:56.312Z,12.49
2023-03-21T18:46:10.200Z,12.41
2023-03-21T18:48:36.911Z,12.45
2023-03-21T18:51:04.024Z,12.44
2023-03-21T18:53:30.839Z,12.34
2023-03-21T18:55:57.797Z,12.37
2023-03-21T18:58:25.186Z,12.14
2023-03-21T19:00:53.546Z,12.03
2023-03-21T19:03:32.886Z,11.85
2023-03-21T19:06:06.468Z,11.70
2023-03-21T19:08:36.972Z,11.67
2023-03-21T19:11:06.750Z,11.38
2023-03-21T19:13:34.874Z,11.17
2023-03-21T19:16:02.857Z,11.26
2023-03-21T19:18:53.056Z,11.45
2023-03-21T19:21:18.289Z,11.45
2023-03-21T19:24:20.912Z,11.38
2023-03-21T19:26:31.422Z,11.24
2023-03-21T19:28:57.992Z,11.31
2023-03-21T19:31:24.775Z,11.25
2023-03-21T19:33:51.565Z,11.44
2023-03-21T19:36:22.531Z,11.72
2023-03-21T19:38:50.991Z,11.83
2023-03-21T19:41:19.093Z,11.69
2023-03-21T19:43:54.125Z,11.51
2023-03-21T19:46:24.847Z,11.30
2023-03-21T19:48:56.325Z,11.26
2023-03-21T19:51:29.077Z,11.40
2023-03-21T19:53:56.259Z,11.45
2023-03-21T19:56:26.441Z,11.37
2023-03-21T19:58:54.435Z,11.41
2023-03-21T20:01:21.841Z,11.48
2023-03-21T20:03:48.503Z,11.37
2023-03-21T20:06:16.288Z,11.37
2023-03-21T20:09:13.709Z,11.67
2023-03-21T20:11:29.449Z,11.71
2023-03-21T20:13:56.340Z,11.74
2023-03-21T20:16:23.102Z,11.78
2023-03-21T20:18:49.803Z,11.69
2023-03-21T20:21:18.436Z,11.78
2023-03-21T20:23:50.925Z,11.85
2023-03-21T20:26:18.412Z,11.89
2023-03-21T20:29:00.194Z,12.00
2023-03-21T20:31:37.680Z,12.19
2023-03-21T20:34:04.226Z,12.34
2023-03-21T20:36:40.210Z,12.40
2023-03-21T20:39:07.553Z,12.42
2023-03-21T20:41:34.158Z,12.33
2023-03-21T20:46:47.865Z,12.32
2023-03-21T20:49:15.354Z,12.27
2023-03-21T20:54:29.884Z,12.13
2023-03-21T20:56:57.291Z,12.14
2023-03-21T20:59:27.729Z,12.18
2023-03-21T21:01:58.019Z,12.06
2023-03-21T21:04:46.692Z,12.09
2023-03-21T21:07:17.572Z,12.04
2023-03-21T21:09:45.447Z,12.11
2023-03-21T21:12:14.977Z,11.99
2023-03-21T21:14:42.667Z,11.93
2023-03-21T21:17:54.224Z,12.02
2023-03-21T21:19:56.580Z,11.99
2023-03-21T21:22:23.153Z,12.00
2023-03-21T21:24:49.657Z,12.04
2023-03-21T21:27:16.250Z,12.07
2023-03-21T21:29:43.408Z,12.11
2023-03-21T21:32:11.164Z,12.05
2023-03-21T21:34:38.045Z,12.18
2023-03-21T21:37:05.101Z,12.13
2023-03-21T21:39:37.770Z,12.22
2023-03-21T21:42:05.303Z,12.13
2023-03-21T21:44:31.973Z,11.97
2023-03-21T21:46:58.630Z,12.07
2023-03-21T21:49:25.347Z,12.13
2023-03-21T21:51:51.894Z,12.39
2023-03-21T21:54:18.678Z,12.25
2023-03-21T21:56:48.352Z,12.30
2023-03-21T21:59:22.043Z,12.32
2023-03-21T22:01:51.267Z,12.33
2023-03-21T22:04:18.659Z,12.15
2023-03-21T22:06:47.552Z,12.03
2023-03-21T22:09:15.804Z,12.02
2023-03-21T22:11:42.531Z,12.16
2023-03-21T22:14:09.104Z,11.98
2023-03-21T22:16:35.884Z,11.85
2023-03-21T22:19:02.436Z,11.68
2023-03-21T22:21:28.998Z,11.66
2023-03-21T22:24:04.777Z,11.61
2023-03-21T22:26:31.471Z,11.58
2023-03-21T22:28:59.896Z,11.57
2023-03-21T22:31:26.559Z,11.41
2023-03-21T22:33:53.144Z,11.57
2023-03-21T22:36:20.247Z,11.52
2023-03-21T22:38:47.845Z,11.56
2023-03-21T22:41:14.637Z,11.53
2023-03-21T22:43:41.280Z,11.21
2023-03-21T22:46:08.055Z,11.12
2023-03-21T22:48:34.855Z,11.19
2023-03-21T22:51:01.441Z,11.08
2023-03-21T22:53:28.942Z,10.98
2023-03-21T22:55:56.011Z,11.13
2023-03-21T22:58:23.002Z,11.03
2023-03-21T23:00:49.560Z,10.81
2023-03-21T23:03:16.930Z,10.89
2023-03-21T23:05:44.664Z,10.89
2023-03-21T23:08:12.214Z,11.21
2023-03-21T23:10:41.275Z,11.01
2023-03-21T23:13:07.953Z,10.91
2023-03-21T23:15:34.551Z,10.91
2023-03-21T23:18:01.107Z,10.84
2023-03-21T23:20:27.928Z,10.84
2023-03-21T23:22:54.921Z,10.69
2023-03-21T23:25:21.650Z,10.66
2023-03-21T23:27:48.308Z,10.68
2023-03-21T23:30:15.122Z,10.70
2023-03-21T23:32:43.003Z,10.58
2023-03-21T23:35:09.890Z,10.67
2023-03-21T23:37:36.447Z,10.57
2023-03-21T23:40:06.357Z,10.47
2023-03-21T23:42:34.204Z,10.43
2023-03-21T23:45:01.063Z,10.50
2023-03-21T23:47:27.858Z,10.55
2023-03-21T23:49:54.486Z,10.66
2023-03-21T23:52:21.386Z,10.69
2023-03-21T23:54:48.068Z,10.95
2023-03-21T23:57:14.715Z,10.85
2023-03-21T23:59:41.268Z,10.67
